createdAt,value
2018-08-18T00:00:40.637Z,101445.66
2018-08-18T00:17:28.602Z,101466.55
2018-08-18T00:25:49.625Z,101462.67
2018-08-18T00:34:10.685Z,101470.84
2018-08-18T00:42:32.780Z,101468.80
2018-08-18T00:50:57.656Z,101471.45
2018-08-18T00:59:18.706Z,101458.83
2018-08-18T01:32:59.122Z,101486.80
2018-08-18T01:41:20.472Z,101491.42
2018-08-18T01:49:43.529Z,101492.84
2018-08-18T01:58:04.963Z,101493.56
2018-08-18T02:06:26.273Z,101492.77
2018-08-18T02:40:07.821Z,101469.31
2018-08-18T02:48:28.804Z,101480.73
2018-08-18T02:56:49.837Z,101496.94
2018-08-18T03:05:11.200Z,101500.88
2018-08-18T03:13:32.280Z,101500.95
2018-08-18T03:30:20.588Z,101512.10
2018-08-18T04:04:01.123Z,101513.41
2018-08-18T04:12:26.038Z,101516.23
2018-08-18T04:54:32.910Z,101539.02
2018-08-18T05:02:53.953Z,101550.11
2018-08-18T05:19:45.647Z,101546.78
2018-08-18T05:28:07.052Z,101540.29
2018-08-18T05:43:42.018Z,101557.34
2018-08-18T06:00:30.171Z,101563.14
2018-08-18T06:17:17.967Z,101569.47
2018-08-18T06:25:39.096Z,101581.76
2018-08-18T06:34:00.387Z,101589.17
2018-08-18T06:42:21.444Z,101590.30
2018-08-18T06:50:42.467Z,101592.54
2018-08-18T07:15:12.175Z,101587.34
2018-08-18T07:23:33.220Z,101589.79
2018-08-18T07:57:06.255Z,101594.50
2018-08-18T08:05:27.309Z,101601.67
2018-08-18T08:13:48.395Z,101603.72
2018-08-18T08:22:09.473Z,101602.52
2018-08-18T08:30:30.517Z,101597.68
2018-08-18T08:38:51.577Z,101603.36
2018-08-18T08:47:12.679Z,101604.50
2018-08-18T08:55:33.696Z,101596.56
2018-08-18T09:08:03.496Z,101608.78
2018-08-18T09:16:24.514Z,101599.02
2018-08-18T09:24:45.614Z,101596.77
2018-08-18T09:33:06.658Z,101588.38
2018-08-18T09:41:27.683Z,101582.58
2018-08-18T09:49:48.989Z,101583.28
2018-08-18T09:58:10.002Z,101579.97
2018-08-18T10:06:31.094Z,101578.62
2018-08-18T10:14:52.471Z,101589.06
2018-08-18T10:23:13.510Z,101582.33
2018-08-18T10:31:34.531Z,101573.49
2018-08-18T10:39:55.639Z,101568.49
2018-08-18T10:48:16.651Z,101557.55
2018-08-18T10:56:37.703Z,101549.27
2018-08-18T11:04:58.712Z,101561.30
2018-08-18T11:13:20.454Z,101545.61
2018-08-18T11:21:41.580Z,101554.80
2018-08-18T11:30:02.731Z,101547.43
2018-08-18T11:38:23.774Z,101548.36
2018-08-18T11:46:44.814Z,101546.05
2018-08-18T11:55:05.834Z,101531.67
2018-08-18T12:03:26.902Z,101518.94
2018-08-18T12:11:47.946Z,101516.72
2018-08-18T12:20:08.971Z,101520.12
2018-08-18T12:28:30.007Z,101503.38
2018-08-18T12:36:51.402Z,101495.76
2018-08-18T12:45:12.430Z,101503.40
2018-08-18T12:53:33.459Z,101489.47
2018-08-18T13:01:54.517Z,101485.66
2018-08-18T13:10:15.803Z,101472.50
2018-08-18T13:18:36.872Z,101483.41
2018-08-18T13:26:58.213Z,101466.77
2018-08-18T13:35:19.244Z,101466.34
2018-08-18T13:43:40.266Z,101456.59
2018-08-18T13:53:22.130Z,101452.53
2018-08-18T14:01:43.149Z,101436.44
2018-08-18T14:10:04.310Z,101436.04
2018-08-18T14:18:26.358Z,101430.20
2018-08-18T14:26:47.489Z,101435.44
2018-08-18T14:35:08.489Z,101432.38
2018-08-18T14:43:29.529Z,101425.72
2018-08-18T14:51:50.662Z,101427.25
2018-08-18T15:00:11.692Z,101413.33
2018-08-18T15:08:32.688Z,101419.84
2018-08-18T15:16:54.803Z,101412.98
2018-08-18T15:25:15.851Z,101399.25
2018-08-18T15:33:36.871Z,101404.62
2018-08-18T15:41:57.896Z,101396.66
2018-08-18T15:50:18.998Z,101392.25
2018-08-18T15:58:40.046Z,101382.05
2018-08-18T16:07:01.098Z,101387.07
2018-08-18T16:19:43.662Z,101390.13
2018-08-18T16:28:04.768Z,101384.64
2018-08-18T16:36:25.793Z,101392.16
2018-08-18T16:44:46.816Z,101385.35
2018-08-18T16:53:07.862Z,101387.25
2018-08-18T17:01:28.989Z,101391.02
2018-08-18T17:09:50.297Z,101398.23
2018-08-18T17:18:11.316Z,101403.45
2018-08-18T17:26:32.411Z,101401.44
2018-08-18T17:41:06.202Z,101411.48
2018-08-18T17:49:27.294Z,101428.02
2018-08-18T17:57:48.368Z,101437.23
2018-08-18T18:06:09.454Z,101436.61
2018-08-18T18:14:30.501Z,101444.27
2018-08-18T18:22:51.522Z,101446.02
2018-08-18T18:31:12.548Z,101450.32
2018-08-18T18:39:33.625Z,101459.28
2018-08-18T18:47:54.659Z,101464.95
2018-08-18T18:56:15.657Z,101484.47
2018-08-18T19:04:36.734Z,101487.08
2018-08-18T19:12:58.173Z,101493.20
2018-08-18T19:21:19.246Z,101508.94
2018-08-18T19:29:40.641Z,101523.84
2018-08-18T19:38:01.659Z,101531.80
2018-08-18T19:46:22.808Z,101531.45
2018-08-18T19:58:25.175Z,101539.11
2018-08-18T20:09:46.003Z,101532.02
2018-08-18T20:18:07.011Z,101524.58
2018-08-18T20:26:28.012Z,101525.71
2018-08-18T20:34:49.113Z,101519.73
2018-08-18T20:43:10.136Z,101530.40
2018-08-18T20:51:31.182Z,101534.22
2018-08-18T20:59:52.229Z,101531.70
2018-08-18T21:08:13.247Z,101540.30
2018-08-18T21:16:34.275Z,101548.58
2018-08-18T21:24:55.290Z,101535.48
2018-08-18T21:33:16.311Z,101550.62
2018-08-18T21:41:37.357Z,101552.13
2018-08-18T21:49:58.400Z,101550.57
2018-08-18T21:58:19.484Z,101564.45
2018-08-18T22:12:23.247Z,101569.47
2018-08-18T22:20:44.391Z,101579.95
2018-08-18T22:29:05.434Z,101586.94
2018-08-18T22:37:26.436Z,101588.28
2018-08-18T22:45:47.474Z,101595.75
2018-08-18T22:54:08.542Z,101597.91
2018-08-18T23:02:29.615Z,101597.69
2018-08-18T23:10:50.938Z,101602.47
2018-08-18T23:19:12.011Z,101591.90
2018-08-18T23:27:33.158Z,101598.92
2018-08-18T23:35:54.174Z,101592.16
2018-08-18T23:44:15.242Z,101588.57
2018-08-18T23:52:36.371Z,101583.27
